Time;durP1;ratioP1;P1;durP2;ratioP2;P2;SDS_P1;SDS_P2;PMS_P1;PMS_P2;Temp;Humidity;BMP_temperature;BMP_pressure;BME280_temperature;BME280_humidity;BME280_pressure;Samples;Min_cycle;Max_cycle;Signal;HPM_P1;HPM_P2
2022/08/05 00:01:10;;;;;;;9.25;3.17;;;23.80;95.30;;;;;;5012911;28;20388;-76
2022/08/05 00:03:36;;;;;;;9.98;2.90;;;23.90;95.50;;;;;;5012968;28;20092;-77
2022/08/05 00:06:05;;;;;;;8.13;2.70;;;23.90;95.30;;;;;;5012623;28;20038;-76
2022/08/05 00:08:31;;;;;;;9.27;3.55;;;24.00;95.40;;;;;;5013166;28;20034;-76
2022/08/05 00:10:58;;;;;;;10.82;4.53;;;24.00;95.30;;;;;;5013743;28;20351;-78
2022/08/05 00:13:24;;;;;;;11.35;4.90;;;23.90;95.40;;;;;;5012941;28;20379;-78
2022/08/05 00:15:50;;;;;;;12.88;4.40;;;23.80;95.70;;;;;;5010724;28;20044;-76
2022/08/05 00:18:15;;;;;;;14.27;5.10;;;23.50;96.20;;;;;;5012560;28;20486;-76
2022/08/05 00:20:41;;;;;;;11.63;5.22;;;23.60;96.30;;;;;;5012230;28;20117;-78
2022/08/05 00:23:07;;;;;;;14.57;6.03;;;23.40;96.70;;;;;;5012329;28;20022;-76
2022/08/05 00:25:32;;;;;;;17.05;6.20;;;23.50;96.70;;;;;;5011789;28;20407;-75
2022/08/05 00:27:58;;;;;;;15.85;6.75;;;23.40;96.80;;;;;;5012215;28;20025;-74
2022/08/05 00:30:24;;;;;;;14.55;7.68;;;23.30;97.10;;;;;;5012066;28;20084;-75
2022/08/05 00:32:50;;;;;;;27.85;8.60;;;23.30;97.30;;;;;;5012218;28;20045;-74
2022/08/05 00:35:16;;;;;;;22.38;9.05;;;23.20;97.40;;;;;;5012192;28;20029;-73
2022/08/05 00:37:42;;;;;;;16.05;8.32;;;23.20;97.70;;;;;;5012398;28;20021;-75
2022/08/05 00:40:08;;;;;;;15.73;8.25;;;23.10;97.70;;;;;;5011920;28;20422;-75
2022/08/05 00:42:36;;;;;;;20.05;8.30;;;23.20;97.70;;;;;;5010762;28;20469;-75
2022/08/05 00:45:03;;;;;;;21.83;9.48;;;23.20;97.40;;;;;;5010627;28;20041;-74
2022/08/05 00:47:29;;;;;;;18.25;9.88;;;23.10;98.00;;;;;;5011608;28;20041;-75
2022/08/05 00:49:55;;;;;;;17.42;8.73;;;23.00;98.00;;;;;;5012205;28;20030;-76
2022/08/05 00:52:21;;;;;;;22.15;9.95;;;23.00;98.10;;;;;;5011822;28;20092;-77
2022/08/05 00:54:47;;;;;;;26.60;10.27;;;23.10;98.00;;;;;;5010720;28;20058;-77
2022/08/05 00:57:13;;;;;;;22.48;10.32;;;23.00;98.20;;;;;;5011383;28;20054;-77
2022/08/05 00:59:39;;;;;;;21.30;10.60;;;22.90;98.30;;;;;;5011717;28;20468;-77
2022/08/05 01:02:05;;;;;;;24.30;9.35;;;22.90;98.40;;;;;;5011691;28;20026;-76
2022/08/05 01:04:31;;;;;;;19.80;10.05;;;22.90;98.40;;;;;;5012248;28;20036;-77
2022/08/05 01:06:57;;;;;;;28.42;9.95;;;22.80;98.30;;;;;;5011765;28;20050;-76
2022/08/05 01:09:22;;;;;;;23.67;9.50;;;22.80;98.30;;;;;;5011646;28;20409;-77
2022/08/05 01:11:50;;;;;;;23.80;10.00;;;23.00;98.30;;;;;;5010299;28;20084;-78
2022/08/05 01:14:19;;;;;;;;;;;22.90;98.20;;;;;;5012103;28;20022;-78
2022/08/05 01:16:50;;;;;;;20.55;8.77;;;22.90;98.20;;;;;;5012150;28;19905;-78
2022/08/05 01:19:21;;;;;;;23.42;8.55;;;23.00;98.30;;;;;;5011479;28;20034;-77
2022/08/05 01:22:15;;;;;;;23.45;8.60;;;23.00;98.20;;;;;;5011607;28;20129;-77
2022/08/05 01:24:59;;;;;;;22.63;9.05;;;22.90;98.10;;;;;;5011294;28;20624;-78
2022/08/05 01:27:46;;;;;;;21.27;9.05;;;22.90;98.00;;;;;;5011108;28;20477;-77
2022/08/05 01:30:13;;;;;;;19.20;8.32;;;22.80;98.20;;;;;;5011207;28;20105;-79
2022/08/05 01:32:42;;;;;;;24.00;9.07;;;22.80;98.10;;;;;;5009968;28;20038;-77
2022/08/05 01:35:21;;;;;;;20.90;8.63;;;22.70;98.20;;;;;;5012077;28;20411;-76
2022/08/05 01:37:51;;;;;;;22.05;9.20;;;22.70;98.30;;;;;;5031453;28;20029;-77
2022/08/05 01:40:20;;;;;;;20.25;8.48;;;22.50;98.30;;;;;;5030712;28;20034;-77
2022/08/05 01:42:47;;;;;;;22.48;8.88;;;22.50;98.50;;;;;;5030668;28;20422;-77
2022/08/05 01:45:14;;;;;;;17.90;7.65;;;22.50;98.30;;;;;;5030652;28;20041;-77
2022/08/05 01:47:43;;;;;;;23.73;9.02;;;22.60;98.40;;;;;;5030716;28;20053;-76
2022/08/05 01:50:18;;;;;;;22.48;9.38;;;22.30;98.70;;;;;;5030574;28;20351;-75
2022/08/05 01:52:47;;;;;;;24.90;8.65;;;22.20;99.20;;;;;;5031164;28;20083;-76
2022/08/05 01:55:16;;;;;;;23.85;8.73;;;22.10;99.10;;;;;;5030014;28;20043;-76
2022/08/05 01:57:45;;;;;;;18.10;9.13;;;21.90;99.40;;;;;;5030692;28;20042;-77
2022/08/05 02:00:13;;;;;;;18.30;9.45;;;21.70;99.80;;;;;;5030702;28;20037;-77
2022/08/05 02:02:51;;;;;;;21.60;8.57;;;21.70;99.90;;;;;;5030384;28;20132;-76
2022/08/05 02:05:19;;;;;;;18.73;8.70;;;22.00;99.50;;;;;;5029452;28;20095;-76
2022/08/05 02:07:45;;;;;;;15.60;8.45;;;22.20;99.20;;;;;;5030800;28;20026;-77
2022/08/05 02:10:11;;;;;;;19.27;8.98;;;22.30;99.00;;;;;;5030399;28;20116;-77
2022/08/05 02:12:54;;;;;;;26.10;9.02;;;22.40;98.90;;;;;;5030431;28;20167;-77
2022/08/05 02:15:27;;;;;;;23.38;8.73;;;22.40;99.20;;;;;;5029456;28;20375;-77
2022/08/05 02:17:56;;;;;;;22.75;8.90;;;22.30;99.30;;;;;;5030225;28;20025;-76
2022/08/05 02:20:23;;;;;;;23.08;9.40;;;22.30;99.30;;;;;;5030350;28;20091;-77
2022/08/05 02:23:07;;;;;;;20.58;8.77;;;22.40;99.30;;;;;;5030637;28;20029;-77
2022/08/05 02:25:40;;;;;;;23.13;8.82;;;22.40;99.20;;;;;;5030228;28;20422;-76
2022/08/05 02:28:07;;;;;;;27.00;10.00;;;22.40;99.20;;;;;;5030100;28;20436;-78
2022/08/05 02:30:44;;;;;;;22.75;10.52;;;22.40;99.10;;;;;;5030058;28;20026;-76
2022/08/05 02:33:16;;;;;;;22.23;8.45;;;22.40;99.70;;;;;;5030143;28;20029;-77
2022/08/05 02:35:43;;;;;;;20.23;8.27;;;22.40;99.60;;;;;;5030237;28;20037;-78
2022/08/05 02:38:10;;;;;;;26.17;8.68;;;22.50;99.90;;;;;;5030973;28;20028;-77
2022/08/05 02:40:39;;;;;;;21.30;8.00;;;22.50;99.90;;;;;;5033142;28;20029;-77
2022/08/05 02:43:06;;;;;;;22.10;8.63;;;22.50;99.90;;;;;;5033669;28;20041;-77
2022/08/05 02:45:32;;;;;;;25.33;9.73;;;22.50;99.90;;;;;;5033990;28;20045;-76
2022/08/05 02:48:00;;;;;;;18.50;8.60;;;22.40;99.90;;;;;;5033747;28;20040;-76
2022/08/05 02:50:26;;;;;;;21.98;8.52;;;22.40;99.90;;;;;;5033104;28;20037;-76
2022/08/05 02:52:53;;;;;;;14.48;7.43;;;22.40;99.90;;;;;;5034421;28;20079;-76
2022/08/05 02:55:19;;;;;;;24.70;9.32;;;22.40;99.80;;;;;;5033616;28;20029;-74
2022/08/05 02:57:46;;;;;;;21.00;9.10;;;22.30;99.90;;;;;;5033085;28;20494;-77
2022/08/05 03:00:12;;;;;;;20.80;8.45;;;22.10;99.90;;;;;;5032564;28;20052;-78
2022/08/05 03:02:40;;;;;;;16.50;8.20;;;22.10;99.90;;;;;;5033292;28;20033;-77
2022/08/05 03:05:09;;;;;;;16.33;7.75;;;22.00;99.90;;;;;;5033064;28;20388;-77
2022/08/05 03:07:37;;;;;;;20.70;8.77;;;22.00;99.90;;;;;;5033614;28;20112;-77
2022/08/05 03:10:03;;;;;;;21.45;8.90;;;22.00;99.90;;;;;;5033721;28;20355;-77
2022/08/05 03:12:48;;;;;;;20.10;8.18;;;21.90;99.90;;;;;;5033061;28;20044;-77
2022/08/05 03:15:14;;;;;;;21.25;9.27;;;22.00;99.90;;;;;;5033255;28;20041;-77
2022/08/05 03:17:39;;;;;;;16.90;8.90;;;21.90;99.90;;;;;;5033207;28;20094;-76
2022/08/05 03:20:06;;;;;;;17.13;8.02;;;21.90;99.90;;;;;;5033207;28;20025;-77
2022/08/05 03:22:32;;;;;;;19.38;8.77;;;21.90;99.90;;;;;;5032184;28;20152;-76
2022/08/05 03:24:58;;;;;;;19.73;7.97;;;21.90;99.90;;;;;;5032883;28;20029;-77
2022/08/05 03:27:25;;;;;;;18.73;7.40;;;21.90;99.90;;;;;;5032880;28;20036;-78
2022/08/05 03:29:50;;;;;;;16.33;7.93;;;21.90;99.90;;;;;;5032967;28;20032;-77
2022/08/05 03:32:18;;;;;;;19.13;8.43;;;22.00;99.90;;;;;;5033122;28;20041;-77
2022/08/05 03:34:44;;;;;;;20.33;7.88;;;21.80;99.90;;;;;;5031967;28;20031;-77
2022/08/05 03:37:10;;;;;;;17.45;7.85;;;22.00;99.90;;;;;;5033340;28;20033;-78
2022/08/05 03:39:37;;;;;;;15.65;7.00;;;22.00;99.90;;;;;;5032547;28;20033;-76
2022/08/05 03:42:03;;;;;;;20.20;8.13;;;22.10;99.90;;;;;;5032536;28;20041;-77
2022/08/05 03:44:29;;;;;;;18.27;7.43;;;22.00;99.90;;;;;;5037273;28;20060;-77
2022/08/05 03:46:55;;;;;;;20.15;9.15;;;22.10;99.90;;;;;;5032870;28;20025;-76
2022/08/05 03:49:20;;;;;;;16.48;8.13;;;22.00;99.90;;;;;;5032099;28;20037;-77
2022/08/05 03:51:59;;;;;;;23.77;9.73;;;22.10;99.90;;;;;;5031256;28;20088;-77
2022/08/05 03:54:30;;;;;;;22.60;8.57;;;22.10;99.90;;;;;;5031314;28;20030;-77
2022/08/05 03:56:58;;;;;;;23.63;9.90;;;22.10;99.90;;;;;;5031069;28;20037;-78
2022/08/05 03:59:33;;;;;;;18.98;9.43;;;22.10;99.90;;;;;;5032697;28;20447;-77
2022/08/05 04:02:01;;;;;;;22.25;9.77;;;22.10;99.90;;;;;;5031961;28;20025;-77
2022/08/05 04:04:29;;;;;;;25.55;10.57;;;22.00;99.90;;;;;;5032692;28;20132;-77
2022/08/05 04:06:55;;;;;;;;;;;22.00;99.90;;;;;;5033367;28;20459;-78
2022/08/05 04:09:22;;;;;;;24.67;10.18;;;22.00;99.90;;;;;;5032349;28;19917;-78
2022/08/05 04:11:48;;;;;;;19.02;9.55;;;22.00;99.90;;;;;;5032654;28;20045;-78
2022/08/05 04:14:15;;;;;;;25.88;9.68;;;22.10;99.90;;;;;;5032156;28;20029;-79
2022/08/05 04:16:41;;;;;;;31.05;11.65;;;22.10;99.90;;;;;;5031789;28;20506;-78
2022/08/05 04:19:11;;;;;;;24.30;10.07;;;22.10;99.90;;;;;;5031895;28;20029;-78
2022/08/05 04:21:36;;;;;;;21.70;10.35;;;22.00;99.90;;;;;;5030627;28;20030;-78
2022/08/05 04:24:03;;;;;;;31.95;10.35;;;22.00;99.90;;;;;;5031753;28;20064;-78
2022/08/05 04:26:29;;;;;;;21.23;10.93;;;21.80;99.90;;;;;;5030706;28;20041;-78
2022/08/05 04:28:55;;;;;;;20.90;10.20;;;21.90;99.90;;;;;;5031911;28;20097;-77
2022/08/05 04:31:21;;;;;;;23.63;10.45;;;21.80;99.90;;;;;;5031442;28;20746;-77
2022/08/05 04:33:48;;;;;;;24.60;11.38;;;21.90;99.90;;;;;;5031625;28;20124;-78
2022/08/05 04:36:14;;;;;;;20.95;10.95;;;22.00;99.90;;;;;;5031517;28;20034;-77
2022/08/05 04:38:41;;;;;;;35.17;11.73;;;21.90;99.90;;;;;;5031459;28;20341;-78
2022/08/05 04:41:07;;;;;;;23.08;10.27;;;21.80;99.90;;;;;;5031222;28;20163;-77
2022/08/05 04:43:33;;;;;;;23.52;11.10;;;21.90;99.90;;;;;;5031668;28;20118;-76
2022/08/05 04:45:59;;;;;;;22.15;11.85;;;21.90;99.90;;;;;;5031376;28;20038;-76
2022/08/05 04:48:24;;;;;;;23.50;11.45;;;21.90;99.90;;;;;;5030851;28;20030;-75
2022/08/05 04:50:50;;;;;;;24.17;11.45;;;21.80;99.90;;;;;;5031156;28;20403;-77
2022/08/05 04:53:17;;;;;;;25.60;10.88;;;21.90;99.90;;;;;;5031734;28;20463;-77
2022/08/05 04:55:44;;;;;;;22.58;11.27;;;21.90;99.90;;;;;;5031497;28;20030;-77
2022/08/05 04:58:15;;;;;;;28.55;12.02;;;21.80;99.90;;;;;;5031153;28;20035;-79
2022/08/05 05:00:41;;;;;;;25.48;12.38;;;21.80;99.90;;;;;;5030471;28;20022;-77
2022/08/05 05:03:08;;;;;;;26.35;11.35;;;21.70;99.90;;;;;;5031166;28;20033;-77
2022/08/05 05:05:34;;;;;;;22.38;10.98;;;21.70;99.90;;;;;;5029985;28;20029;-77
2022/08/05 05:08:10;;;;;;;22.50;10.45;;;21.60;99.90;;;;;;5031598;28;20097;-77
2022/08/05 05:10:41;;;;;;;24.20;10.65;;;21.70;99.90;;;;;;5030384;28;20040;-77
2022/08/05 05:13:12;;;;;;;22.33;10.48;;;21.60;99.90;;;;;;5031729;28;20096;-78
2022/08/05 05:15:39;;;;;;;22.92;9.27;;;21.60;99.90;;;;;;5031018;28;20432;-78
2022/08/05 05:18:05;;;;;;;19.55;8.88;;;21.60;99.90;;;;;;5031150;28;20408;-78
2022/08/05 05:20:31;;;;;;;19.52;9.80;;;21.70;99.90;;;;;;5031118;28;20029;-77
2022/08/05 05:22:58;;;;;;;18.00;9.30;;;21.80;99.90;;;;;;5031372;28;20351;-78
2022/08/05 05:25:24;;;;;;;17.35;8.25;;;21.80;99.90;;;;;;5030936;28;20029;-78
2022/08/05 05:27:51;;;;;;;21.67;8.35;;;21.80;99.90;;;;;;5030789;28;20082;-77
2022/08/05 05:30:17;;;;;;;15.95;7.90;;;21.80;99.90;;;;;;5031095;28;20029;-78
2022/08/05 05:32:43;;;;;;;16.60;7.82;;;21.80;99.90;;;;;;5029962;28;20076;-77
2022/08/05 05:35:09;;;;;;;17.63;7.63;;;21.80;99.90;;;;;;5030899;28;20479;-78
2022/08/05 05:37:47;;;;;;;17.75;8.02;;;21.80;99.90;;;;;;5031210;28;20017;-78
2022/08/05 05:40:21;;;;;;;20.42;8.38;;;21.70;99.90;;;;;;5030725;28;20348;-78
2022/08/05 05:42:47;;;;;;;16.00;7.47;;;21.70;99.90;;;;;;5030721;28;20053;-78
2022/08/05 05:45:13;;;;;;;17.73;7.97;;;21.70;99.90;;;;;;5030661;28;20033;-79
2022/08/05 05:47:40;;;;;;;15.38;7.10;;;21.80;99.90;;;;;;5030754;28;20034;-77
2022/08/05 05:50:10;;;;;;;15.48;7.30;;;21.80;99.90;;;;;;5029432;28;20030;-78
2022/08/05 05:52:36;;;;;;;11.63;6.43;;;21.80;99.90;;;;;;5031256;28;20045;-78
2022/08/05 05:55:04;;;;;;;14.15;6.50;;;21.70;99.90;;;;;;5030736;28;20467;-77
2022/08/05 05:57:29;;;;;;;13.63;6.53;;;21.50;99.90;;;;;;5031047;28;20042;-80
2022/08/05 05:59:55;;;;;;;13.40;5.72;;;21.50;99.90;;;;;;5030769;28;20033;-76
2022/08/05 06:02:21;;;;;;;11.63;5.57;;;21.60;99.90;;;;;;5032395;28;20025;-85
2022/08/05 06:04:47;;;;;;;13.32;6.00;;;21.60;99.90;;;;;;5034622;28;20018;-78
2022/08/05 06:07:13;;;;;;;12.68;5.70;;;21.70;99.90;;;;;;5033653;28;20041;-81
2022/08/05 06:09:39;;;;;;;16.65;5.38;;;21.60;99.90;;;;;;5030045;28;20438;-77
2022/08/05 06:12:05;;;;;;;15.95;5.22;;;21.60;99.90;;;;;;5031169;28;20140;-78
2022/08/05 06:14:31;;;;;;;14.57;4.85;;;21.60;99.90;;;;;;5034727;28;20030;-77
2022/08/05 06:16:57;;;;;;;13.77;5.07;;;21.70;99.90;;;;;;5035270;28;20116;-81
2022/08/05 06:19:23;;;;;;;12.05;5.15;;;21.60;99.90;;;;;;5033339;28;20463;-78
2022/08/05 06:21:48;;;;;;;11.68;5.38;;;21.60;99.90;;;;;;5034210;28;20133;-80
2022/08/05 06:24:14;;;;;;;11.65;4.90;;;21.50;99.90;;;;;;5034548;28;20486;-78
2022/08/05 06:26:40;;;;;;;11.32;5.65;;;21.50;99.90;;;;;;5032987;28;20414;-77
2022/08/05 06:29:05;;;;;;;11.25;5.32;;;21.40;99.90;;;;;;5033527;28;20029;-83
2022/08/05 06:31:31;;;;;;;11.48;5.35;;;21.30;99.90;;;;;;5034581;28;20467;-75
2022/08/05 06:33:57;;;;;;;15.93;6.28;;;21.30;99.90;;;;;;5034394;28;20084;-79
2022/08/05 06:36:23;;;;;;;17.17;6.45;;;21.40;99.90;;;;;;5034445;28;20484;-77
2022/08/05 06:38:52;;;;;;;15.93;6.82;;;21.40;99.90;;;;;;5035561;28;20029;-80
2022/08/05 06:41:18;;;;;;;13.80;5.95;;;21.40;99.90;;;;;;5035548;28;20359;-82
2022/08/05 06:43:44;;;;;;;13.52;6.55;;;21.30;99.90;;;;;;5033740;28;20030;-81
2022/08/05 06:46:09;;;;;;;20.52;6.65;;;21.30;99.90;;;;;;5035107;28;20029;-82
2022/08/05 06:48:35;;;;;;;12.55;5.97;;;21.20;99.90;;;;;;5034474;28;20459;-81
2022/08/05 06:51:04;;;;;;;26.65;15.52;;;21.30;99.90;;;;;;5034308;28;20048;-82
2022/08/05 06:53:30;;;;;;;25.08;12.88;;;21.40;99.90;;;;;;5034230;28;20026;-81
2022/08/05 06:55:57;;;;;;;24.27;11.90;;;21.30;99.90;;;;;;5033734;28;20079;-83
2022/08/05 06:58:23;;;;;;;21.75;8.07;;;21.40;99.90;;;;;;5033177;28;20049;-85
2022/08/05 07:00:50;;;;;;;13.23;7.82;;;21.40;99.90;;;;;;5035451;28;20087;-82
2022/08/05 07:03:16;;;;;;;15.10;8.95;;;21.30;99.90;;;;;;5035620;28;20075;-83
2022/08/05 07:05:42;;;;;;;17.38;8.75;;;21.30;99.90;;;;;;5034742;28;20029;-85
2022/08/05 07:08:07;;;;;;;13.18;7.25;;;21.30;99.90;;;;;;5034128;28;20037;-75
2022/08/05 07:10:33;;;;;;;15.52;8.40;;;21.30;99.90;;;;;;5033951;28;20025;-76
2022/08/05 07:18:27;;;;;;;21.75;13.50;;;21.40;99.90;;;;;;5033899;28;20033;-82
2022/08/05 07:20:53;;;;;;;54.08;48.38;;;21.40;99.90;;;;;;5033903;28;20029;-78
2022/08/05 07:23:18;;;;;;;14.63;6.05;;;21.40;99.90;;;;;;5033115;28;20030;-78
2022/08/05 07:25:44;;;;;;;27.02;19.67;;;21.40;99.90;;;;;;5032985;28;20460;-77
2022/08/05 07:28:10;;;;;;;15.60;5.95;;;21.40;99.90;;;;;;5033160;28;20037;-80
2022/08/05 07:30:37;;;;;;;12.02;5.72;;;21.50;99.90;;;;;;5032799;28;20033;-80
2022/08/05 07:33:04;;;;;;;15.80;5.78;;;21.50;99.90;;;;;;5032072;28;20041;-82
2022/08/05 07:35:30;;;;;;;19.13;5.97;;;21.60;99.90;;;;;;5032601;28;20109;-81
2022/08/05 07:37:56;;;;;;;11.95;6.25;;;21.60;99.90;;;;;;5032665;28;20376;-81
2022/08/05 07:40:22;;;;;;;13.68;5.82;;;21.60;99.90;;;;;;5033431;28;20109;-82
2022/08/05 07:42:48;;;;;;;11.93;6.15;;;21.50;99.90;;;;;;5033252;28;20038;-79
2022/08/05 07:45:14;;;;;;;14.68;6.47;;;21.60;99.90;;;;;;5033091;28;20033;-75
2022/08/05 07:47:40;;;;;;;16.45;6.38;;;21.50;99.90;;;;;;5033035;28;20041;-83
2022/08/05 07:50:07;;;;;;;11.93;5.65;;;21.50;99.90;;;;;;5032103;28;20075;-79
2022/08/05 07:52:42;;;;;;;11.52;5.50;;;21.60;99.90;;;;;;5032497;28;20455;-80
2022/08/05 07:55:08;;;;;;;11.88;5.35;;;21.50;99.90;;;;;;5031671;28;20555;-78
2022/08/05 07:57:35;;;;;;;15.75;5.20;;;21.40;99.90;;;;;;5032464;28;20056;-79
2022/08/05 08:00:03;;;;;;;11.02;5.13;;;21.50;99.90;;;;;;5032822;28;20494;-81
2022/08/05 08:02:29;;;;;;;11.75;5.40;;;21.40;99.90;;;;;;5032150;28;20044;-76
2022/08/05 08:04:55;;;;;;;10.20;5.15;;;21.40;99.90;;;;;;5032714;28;20375;-75
2022/08/05 08:07:21;;;;;;;12.35;5.40;;;21.40;99.90;;;;;;5032580;28;20059;-78
2022/08/05 08:09:48;;;;;;;8.23;5.32;;;21.40;99.90;;;;;;5032194;28;20041;-80
2022/08/05 08:12:14;;;;;;;14.70;6.20;;;21.40;99.90;;;;;;5032069;28;20042;-76
2022/08/05 08:14:43;;;;;;;9.05;6.18;;;21.40;99.90;;;;;;5031557;28;20459;-81
2022/08/05 08:17:09;;;;;;;16.25;6.93;;;21.40;99.90;;;;;;5032256;28;20041;-80
2022/08/05 08:19:46;;;;;;;15.45;5.90;;;21.50;99.90;;;;;;5032976;28;20022;-80
2022/08/05 08:22:12;;;;;;;13.52;5.85;;;21.50;99.90;;;;;;5031912;28;20034;-79
2022/08/05 08:24:38;;;;;;;26.10;15.15;;;21.60;99.90;;;;;;5031536;28;20095;-79
2022/08/05 08:27:04;;;;;;;18.25;6.25;;;21.50;99.90;;;;;;5031377;28;20033;-83
2022/08/05 08:29:30;;;;;;;16.08;6.25;;;21.50;99.90;;;;;;5031489;28;20452;-82
2022/08/05 08:31:56;;;;;;;12.27;6.28;;;21.50;99.90;;;;;;5033043;28;20033;-84
2022/08/05 08:34:24;;;;;;;8.23;4.47;;;21.40;99.90;;;;;;5032919;28;20523;-82
2022/08/05 08:36:50;;;;;;;27.80;11.80;;;21.50;99.90;;;;;;5031098;28;20113;-81
2022/08/05 08:39:17;;;;;;;10.05;5.85;;;21.60;99.90;;;;;;5031730;28;20037;-76
2022/08/05 08:41:50;;;;;;;11.27;4.75;;;21.70;99.90;;;;;;5032081;28;20033;-79
2022/08/05 08:44:20;;;;;;;7.47;4.72;;;21.60;99.90;;;;;;5031658;28;20021;-79
2022/08/05 08:46:47;;;;;;;8.52;5.07;;;21.70;99.90;;;;;;5030947;28;20163;-79
2022/08/05 08:49:14;;;;;;;12.60;5.13;;;21.60;99.90;;;;;;5031458;28;20125;-81
2022/08/05 08:51:45;;;;;;;30.67;7.28;;;21.70;99.90;;;;;;5030433;28;20059;-79
2022/08/05 08:54:11;;;;;;;17.42;6.00;;;21.60;99.90;;;;;;5032902;28;20379;-82
2022/08/05 08:56:46;;;;;;;21.38;7.18;;;21.70;99.90;;;;;;5077892;27;20443;-86
2022/08/05 08:59:11;;;;;;;27.17;19.70;;;21.80;99.90;;;;;;5048957;28;20025;-84
2022/08/05 09:01:38;;;;;;;13.48;6.25;;;21.90;99.90;;;;;;5052440;28;20096;-91
2022/08/05 09:04:04;;;;;;;12.75;5.85;;;22.10;99.90;;;;;;5050550;28;20041;-76
2022/08/05 09:06:30;;;;;;;13.23;7.22;;;22.20;99.90;;;;;;5079998;28;20361;-75
2022/08/05 09:08:58;;;;;;;14.90;5.85;;;22.20;99.90;;;;;;5047531;28;20048;-77
2022/08/05 09:11:24;;;;;;;;;;;22.20;99.90;;;;;;5047216;28;20065;-80
2022/08/05 09:13:50;;;;;;;13.82;5.97;;;22.20;99.90;;;;;;5048277;28;19944;-80
2022/08/05 09:16:16;;;;;;;8.00;5.43;;;22.20;99.90;;;;;;5047467;28;20442;-78
2022/08/05 09:18:43;;;;;;;13.05;5.65;;;22.20;99.90;;;;;;5046163;28;20116;-76
2022/08/05 09:21:09;;;;;;;9.38;4.78;;;22.20;99.90;;;;;;5047275;28;20040;-78
2022/08/05 09:23:36;;;;;;;8.05;4.72;;;22.10;99.90;;;;;;5047336;28;20370;-83
2022/08/05 09:26:15;;;;;;;9.38;4.85;;;22.10;99.90;;;;;;5049002;28;20460;-85
2022/08/05 09:28:40;;;;;;;18.65;5.32;;;22.10;99.90;;;;;;5048081;28;20045;-82
2022/08/05 09:31:08;;;;;;;15.57;4.18;;;22.10;99.90;;;;;;5047725;28;20366;-82
2022/08/05 09:33:51;;;;;;;7.30;3.90;;;22.00;99.90;;;;;;5047061;28;20142;-81
2022/08/05 09:36:18;;;;;;;6.13;3.85;;;22.00;99.90;;;;;;5047742;28;20425;-81
2022/08/05 09:39:02;;;;;;;7.88;4.60;;;21.90;99.90;;;;;;5047627;28;20467;-90
2022/08/05 09:41:28;;;;;;;23.65;14.90;;;21.70;99.90;;;;;;5044744;28;20041;-85
2022/08/05 09:43:54;;;;;;;13.60;8.05;;;21.80;99.90;;;;;;5048952;28;20028;-85
2022/08/05 09:46:25;;;;;;;7.53;3.95;;;21.90;99.90;;;;;;5048377;28;20029;-82
2022/08/05 09:48:53;;;;;;;8.50;3.28;;;21.90;99.90;;;;;;5047986;28;20041;-79
2022/08/05 09:51:34;;;;;;;24.65;16.88;;;21.90;99.90;;;;;;5047594;28;20483;-79
2022/08/05 09:54:00;;;;;;;7.78;3.03;;;21.90;99.90;;;;;;5048296;28;20071;-81
2022/08/05 09:56:36;;;;;;;6.78;2.53;;;21.90;99.90;;;;;;5045838;28;20076;-77
2022/08/05 09:59:07;;;;;;;6.70;2.88;;;21.80;99.90;;;;;;5048088;28;20025;-77
2022/08/05 10:01:35;;;;;;;7.68;2.72;;;21.80;99.80;;;;;;5047827;28;20025;-78
2022/08/05 10:04:03;;;;;;;;;;;21.80;99.60;;;;;;5047901;28;20402;-77
2022/08/05 10:06:30;;;;;;;4.32;1.90;;;21.80;99.10;;;;;;5043265;28;20418;-79
2022/08/05 10:09:14;;;;;;;9.43;3.33;;;21.80;99.10;;;;;;5034599;28;20069;-81
2022/08/05 10:11:41;;;;;;;6.80;2.50;;;21.70;99.00;;;;;;5034331;28;20116;-79
2022/08/05 10:14:39;;;;;;;5.23;2.40;;;21.70;98.70;;;;;;5034141;28;20367;-80
2022/08/05 10:17:13;;;;;;;4.25;1.95;;;21.80;98.60;;;;;;5022072;28;20040;-80
2022/08/05 10:19:39;;;;;;;7.70;2.92;;;21.80;98.20;;;;;;5033506;28;20017;-79
2022/08/05 10:22:09;;;;;;;7.30;2.03;;;21.70;98.00;;;;;;5032828;28;20365;-82
2022/08/05 10:24:36;;;;;;;7.38;2.30;;;21.60;97.90;;;;;;5033351;28;20291;-80
2022/08/05 10:27:02;;;;;;;6.93;2.47;;;21.60;97.90;;;;;;5033796;28;20068;-79
2022/08/05 10:29:31;;;;;;;6.95;2.17;;;21.60;98.30;;;;;;5033966;28;20053;-80
2022/08/05 10:31:57;;;;;;;7.28;2.20;;;21.60;98.10;;;;;;5034002;28;20132;-79
2022/08/05 10:34:23;;;;;;;3.88;1.90;;;21.60;98.20;;;;;;5034160;28;20113;-78
2022/08/05 10:36:50;;;;;;;4.10;1.98;;;21.60;98.00;;;;;;5034122;28;20044;-79
2022/08/05 10:39:27;;;;;;;8.10;3.22;;;21.60;97.70;;;;;;5032331;28;20140;-74
2022/08/05 10:42:01;;;;;;;6.22;2.40;;;21.30;97.80;;;;;;5033500;28;20456;-76
2022/08/05 10:44:30;;;;;;;8.98;3.22;;;21.20;97.80;;;;;;5032122;28;20468;-78
2022/08/05 10:46:56;;;;;;;11.30;3.78;;;21.20;98.80;;;;;;5032649;28;20095;-76
2022/08/05 10:49:24;;;;;;;9.15;3.60;;;21.10;99.80;;;;;;5032423;28;20446;-77
2022/08/05 10:51:56;;;;;;;15.45;5.82;;;20.90;99.90;;;;;;5033597;28;20080;-78
2022/08/05 10:54:24;;;;;;;7.72;3.05;;;21.00;99.90;;;;;;5033178;28;20029;-78
2022/08/05 10:56:56;;;;;;;12.07;3.50;;;21.10;99.90;;;;;;5033417;28;20104;-79
2022/08/05 10:59:29;;;;;;;11.52;4.30;;;21.20;99.90;;;;;;5033516;28;20095;-77
2022/08/05 11:02:12;;;;;;;10.63;8.05;;;21.20;99.90;;;;;;5034128;28;20375;-80
2022/08/05 11:04:46;;;;;;;13.57;8.35;;;21.20;99.90;;;;;;5032675;28;20040;-80
2022/08/05 11:07:16;;;;;;;14.82;10.55;;;21.30;99.90;;;;;;5033280;28;20021;-79
2022/08/05 11:09:55;;;;;;;11.52;5.70;;;21.40;99.90;;;;;;5032705;28;20125;-83
2022/08/05 11:12:33;;;;;;;54.50;41.28;;;21.40;99.90;;;;;;5033221;28;20057;-80
2022/08/05 11:15:07;;;;;;;9.13;3.70;;;21.40;99.90;;;;;;5031655;28;20034;-72
2022/08/05 11:17:37;;;;;;;7.60;4.35;;;21.40;99.90;;;;;;5031245;28;20119;-76
2022/08/05 11:20:05;;;;;;;5.43;3.67;;;21.40;99.90;;;;;;5032198;28;20096;-79
2022/08/05 11:22:41;;;;;;;;;;;21.50;99.90;;;;;;5033777;28;20018;-81
2022/08/05 11:25:29;;;;;;;6.85;3.45;;;21.50;99.90;;;;;;5032896;28;20215;-88
2022/08/05 11:27:55;;;;;;;;;;;21.50;99.90;;;;;;5032143;28;20030;-81
2022/08/05 11:30:22;;;;;;;6.55;3.47;;;21.60;99.90;;;;;;5033037;28;19936;-81
2022/08/05 11:32:47;;;;;;;5.57;3.85;;;21.60;99.90;;;;;;5031848;28;20502;-81
2022/08/05 11:35:50;;;;;;;10.20;4.38;;;21.60;99.90;;;;;;5033026;28;20026;-79
2022/08/05 11:38:16;;;;;;;10.30;3.80;;;21.60;99.90;;;;;;5033540;28;20022;-83
2022/08/05 11:41:04;;;;;;;7.18;3.35;;;21.70;99.90;;;;;;5034065;28;20474;-87
2022/08/05 11:43:30;;;;;;;14.57;10.48;;;21.50;99.90;;;;;;5034782;28;20097;-89
2022/08/05 11:45:56;;;;;;;9.35;4.57;;;21.50;99.90;;;;;;5033243;28;20053;-83
2022/08/05 11:48:22;;;;;;;11.05;5.25;;;21.50;99.90;;;;;;5032664;28;20030;-82
2022/08/05 11:50:49;;;;;;;9.40;3.80;;;21.60;99.90;;;;;;5031317;28;20481;-79
2022/08/05 11:53:15;;;;;;;5.95;3.60;;;21.60;99.90;;;;;;5032651;28;20116;-79
2022/08/05 11:55:58;;;;;;;9.25;3.70;;;21.50;99.90;;;;;;5032457;28;20103;-80
2022/08/05 11:58:41;;;;;;;3.92;2.97;;;21.30;99.90;;;;;;5031707;28;20104;-78
2022/08/05 12:01:21;;;;;;;8.75;3.92;;;21.30;99.90;;;;;;5031956;28;20064;-79
2022/08/05 12:03:56;;;;;;;5.70;3.47;;;21.40;99.90;;;;;;5031710;28;20037;-78
2022/08/05 12:06:31;;;;;;;15.32;10.95;;;21.50;99.90;;;;;;5030658;28;20371;-78
2022/08/05 12:08:58;;;;;;;6.00;4.03;;;21.50;99.90;;;;;;5030569;28;20399;-77
2022/08/05 12:11:29;;;;;;;11.40;3.97;;;21.30;99.90;;;;;;5031301;28;20025;-74
2022/08/05 12:13:56;;;;;;;7.60;3.00;;;21.20;99.90;;;;;;5031756;28;20052;-77
2022/08/05 12:16:24;;;;;;;4.18;2.80;;;21.00;99.90;;;;;;5031303;28;20033;-78
2022/08/05 12:18:49;;;;;;;;;;;21.10;99.90;;;;;;5031662;28;20029;-78
2022/08/05 12:21:19;;;;;;;5.72;3.05;;;21.10;99.90;;;;;;5031461;28;20414;-77
2022/08/05 12:24:01;;;;;;;7.93;2.97;;;21.30;99.90;;;;;;5031365;28;20033;-77
2022/08/05 12:26:39;;;;;;;8.63;3.33;;;21.20;99.90;;;;;;5031282;28;20494;-82
2022/08/05 12:29:11;;;;;;;5.47;2.80;;;21.20;99.90;;;;;;5030952;28;20108;-76
2022/08/05 12:31:37;;;;;;;5.45;2.78;;;21.10;99.90;;;;;;5031683;28;20105;-79
2022/08/05 12:34:08;;;;;;;8.95;3.20;;;21.10;99.90;;;;;;5031660;28;20029;-87
2022/08/05 12:36:35;;;;;;;6.38;3.20;;;21.20;99.90;;;;;;5030974;28;20048;-86
2022/08/05 12:39:03;;;;;;;13.77;5.80;;;21.20;99.90;;;;;;5031190;28;20324;-81
2022/08/05 12:41:33;;;;;;;49.53;41.42;;;21.10;99.90;;;;;;5031136;28;20033;-84
2022/08/05 12:44:05;;;;;;;6.07;4.60;;;21.10;99.90;;;;;;5031530;28;20032;-80
2022/08/05 12:46:32;;;;;;;6.30;3.30;;;21.20;99.90;;;;;;5033068;28;20026;-80
2022/08/05 12:49:14;;;;;;;6.50;3.47;;;21.10;99.90;;;;;;5030739;28;20036;-80
2022/08/05 12:52:13;;;;;;;5.75;3.30;;;21.10;99.90;;;;;;5031170;28;20108;-79
2022/08/05 12:54:40;;;;;;;6.63;3.33;;;21.10;99.90;;;;;;5019242;28;20029;-80